Time;durP1;ratioP1;P1;durP2;ratioP2;P2;SDS_P1;SDS_P2;PMS_P1;PMS_P2;Temp;Humidity;BMP_temperature;BMP_pressure;BME280_temperature;BME280_humidity;BME280_pressure;Samples;Min_cycle;Max_cycle;Signal;HPM_P1;HPM_P2
2021/06/17 00:02:10;;;;;;;7.93;5.25;;;26.40;99.40;;;;;;4996018;28;20038;-66
2021/06/17 00:04:36;;;;;;;6.38;4.90;;;26.40;99.70;;;;;;4997857;28;20478;-68
2021/06/17 00:07:02;;;;;;;6.53;4.82;;;26.30;99.40;;;;;;4994268;28;20109;-67
2021/06/17 00:09:28;;;;;;;6.03;4.60;;;26.30;99.50;;;;;;4994994;28;20061;-68
2021/06/17 00:12:00;;;;;;;6.15;4.88;;;26.30;99.50;;;;;;4994433;28;20470;-67
2021/06/17 00:14:30;;;;;;;8.70;4.82;;;26.30;99.50;;;;;;4994273;28;20030;-67
2021/06/17 00:16:57;;;;;;;5.88;4.82;;;26.30;99.60;;;;;;5011588;28;20109;-66
2021/06/17 00:19:23;;;;;;;6.72;4.50;;;26.20;99.60;;;;;;5013545;28;20368;-67
2021/06/17 00:21:49;;;;;;;5.47;4.63;;;26.20;99.60;;;;;;5013685;28;20385;-67
2021/06/17 00:24:15;;;;;;;7.47;5.10;;;26.20;99.70;;;;;;5014011;28;20022;-67
2021/06/17 00:26:41;;;;;;;6.53;4.60;;;26.20;99.70;;;;;;5013436;28;20037;-67
2021/06/17 00:29:07;;;;;;;5.72;4.55;;;26.20;99.70;;;;;;5013600;28;20034;-67
2021/06/17 00:31:33;;;;;;;7.03;4.65;;;26.20;99.70;;;;;;5013368;28;20428;-66
2021/06/17 00:33:58;;;;;;;6.22;4.60;;;26.10;99.70;;;;;;5013584;28;20080;-66
2021/06/17 00:36:24;;;;;;;5.32;4.50;;;26.10;99.70;;;;;;5013316;28;20392;-67
2021/06/17 00:38:49;;;;;;;5.57;4.50;;;26.10;99.70;;;;;;5012726;28;20033;-68
2021/06/17 00:41:15;;;;;;;6.40;4.47;;;26.10;99.70;;;;;;5002644;28;20034;-66
2021/06/17 00:43:41;;;;;;;5.30;4.45;;;26.10;99.70;;;;;;5013290;28;20022;-66
2021/06/17 00:46:07;;;;;;;7.05;5.00;;;26.10;99.70;;;;;;5013469;28;20025;-66
2021/06/17 00:48:32;;;;;;;8.75;4.57;;;26.00;99.70;;;;;;5012916;28;20022;-67
2021/06/17 00:51:00;;;;;;;6.90;4.30;;;26.00;99.70;;;;;;5013168;28;20034;-66
2021/06/17 00:53:29;;;;;;;4.47;4.03;;;26.00;99.60;;;;;;4996011;28;20031;-67
2021/06/17 00:55:55;;;;;;;6.38;4.50;;;26.10;99.60;;;;;;4993504;28;20469;-66
2021/06/17 00:58:21;;;;;;;4.72;4.22;;;26.00;99.60;;;;;;4993309;28;20030;-66
2021/06/17 01:00:48;;;;;;;5.88;3.80;;;26.00;99.60;;;;;;4993655;28;20117;-66
2021/06/17 01:03:14;;;;;;;5.28;4.03;;;26.00;99.50;;;;;;4993480;28;20026;-66
2021/06/17 01:05:40;;;;;;;6.65;4.25;;;26.00;99.50;;;;;;4993062;28;20390;-68
2021/06/17 01:08:32;;;;;;;5.85;4.22;;;26.00;99.50;;;;;;4993327;28;20537;-66
2021/06/17 01:11:02;;;;;;;7.20;4.13;;;26.00;99.50;;;;;;5009645;28;20058;-67
2021/06/17 01:13:51;;;;;;;6.00;4.40;;;26.00;99.40;;;;;;5012579;28;20037;-68
2021/06/17 01:16:47;;;;;;;6.05;4.30;;;26.00;99.30;;;;;;5013116;28;20025;-67
2021/06/17 01:19:20;;;;;;;8.15;4.70;;;26.00;99.30;;;;;;5012717;28;20025;-67
2021/06/17 01:21:54;;;;;;;6.97;4.80;;;25.90;99.30;;;;;;5012935;28;20075;-67
2021/06/17 01:24:26;;;;;;;7.43;4.63;;;25.90;99.30;;;;;;5010849;28;20034;-67
2021/06/17 01:27:21;;;;;;;6.30;4.50;;;25.90;99.30;;;;;;5012462;28;20137;-67
2021/06/17 01:29:56;;;;;;;7.00;4.50;;;25.90;99.30;;;;;;5012794;28;20545;-67
2021/06/17 01:32:23;;;;;;;4.85;4.38;;;25.90;99.30;;;;;;5012207;28;20030;-67
2021/06/17 01:34:51;;;;;;;6.65;4.13;;;25.90;99.30;;;;;;5012833;28;20370;-67
2021/06/17 01:37:19;;;;;;;4.47;4.05;;;25.90;99.30;;;;;;5012653;28;20033;-66
2021/06/17 01:39:46;;;;;;;5.20;4.10;;;25.80;99.30;;;;;;5000442;28;20030;-66
2021/06/17 01:42:14;;;;;;;7.03;3.95;;;25.80;99.30;;;;;;4999729;28;20083;-66
2021/06/17 01:44:40;;;;;;;6.53;3.97;;;25.80;99.30;;;;;;5012089;28;20569;-67
2021/06/17 01:47:07;;;;;;;6.82;4.25;;;25.80;99.30;;;;;;5012243;28;20061;-67
2021/06/17 01:49:36;;;;;;;5.90;3.75;;;25.80;99.30;;;;;;5010688;28;20478;-67
2021/06/17 01:52:05;;;;;;;6.03;3.47;;;25.80;99.30;;;;;;5005872;28;20030;-66
2021/06/17 01:54:31;;;;;;;6.47;3.80;;;25.80;99.30;;;;;;4991831;28;20026;-66
2021/06/17 01:56:59;;;;;;;4.95;4.00;;;25.80;99.30;;;;;;4992635;28;20018;-66
2021/06/17 01:59:27;;;;;;;4.15;3.72;;;25.80;99.30;;;;;;4992231;28;20168;-66
2021/06/17 02:01:59;;;;;;;5.05;3.80;;;25.70;99.20;;;;;;4992328;28;20034;-66
2021/06/17 02:04:28;;;;;;;4.32;3.90;;;25.70;99.20;;;;;;4990875;28;20030;-67
2021/06/17 02:06:55;;;;;;;6.10;3.60;;;25.70;99.30;;;;;;4992358;28;20022;-66
2021/06/17 02:09:26;;;;;;;5.15;3.83;;;25.70;99.20;;;;;;5002483;28;20034;-67
2021/06/17 02:11:53;;;;;;;5.78;3.80;;;25.70;99.30;;;;;;5010643;28;20402;-66
2021/06/17 02:14:19;;;;;;;4.78;3.65;;;25.70;99.30;;;;;;5011986;28;20083;-66
2021/06/17 02:16:46;;;;;;;4.25;3.20;;;25.70;99.30;;;;;;5012278;28;20116;-66
2021/06/17 02:19:14;;;;;;;4.82;3.67;;;25.70;99.30;;;;;;5011750;28;20041;-65
2021/06/17 02:21:41;;;;;;;6.03;3.65;;;25.70;99.30;;;;;;5011454;28;20042;-66
2021/06/17 02:24:09;;;;;;;6.57;3.75;;;25.70;99.40;;;;;;5010440;28;20026;-66
2021/06/17 02:26:39;;;;;;;5.53;4.10;;;25.70;99.30;;;;;;5011647;28;20100;-66
2021/06/17 02:29:09;;;;;;;6.80;3.63;;;25.50;99.00;;;;;;5011518;28;20025;-66
2021/06/17 02:31:38;;;;;;;4.85;3.65;;;24.30;99.90;;;;;;5011396;28;20033;-65
2021/06/17 02:34:04;;;;;;;5.95;4.20;;;23.90;99.90;;;;;;5011672;28;20018;-67
2021/06/17 02:36:31;;;;;;;6.15;4.05;;;23.60;99.90;;;;;;5011388;28;20033;-66
2021/06/17 02:39:00;;;;;;;6.10;3.92;;;23.50;99.90;;;;;;5004248;28;20045;-65
2021/06/17 02:41:27;;;;;;;5.47;3.80;;;23.40;99.90;;;;;;4991912;28;20018;-67
2021/06/17 02:43:56;;;;;;;3.85;3.55;;;23.40;99.90;;;;;;4991838;28;20478;-65
2021/06/17 02:46:22;;;;;;;4.03;3.55;;;23.20;99.90;;;;;;4991783;28;20053;-65
2021/06/17 02:48:52;;;;;;;10.43;4.70;;;23.20;99.90;;;;;;5007211;28;20053;-66
2021/06/17 02:51:18;;;;;;;5.65;3.97;;;23.10;99.90;;;;;;4992465;28;20042;-67
2021/06/17 02:53:44;;;;;;;10.10;4.50;;;23.00;99.90;;;;;;5011512;28;20022;-66
2021/06/17 02:56:49;;;;;;;5.25;4.00;;;23.10;99.90;;;;;;5011497;28;20045;-64
2021/06/17 02:59:31;;;;;;;6.35;4.15;;;23.00;99.90;;;;;;4992612;28;20042;-66
2021/06/17 03:02:12;;;;;;;6.15;4.10;;;23.00;99.90;;;;;;5011477;28;20481;-66
2021/06/17 03:04:48;;;;;;;6.32;4.50;;;23.00;99.90;;;;;;5013194;28;20055;-65
2021/06/17 03:07:36;;;;;;;4.50;3.72;;;22.80;99.90;;;;;;5015559;28;20120;-65
2021/06/17 03:10:06;;;;;;;6.28;3.67;;;22.70;99.90;;;;;;5014455;28;20088;-66
2021/06/17 03:12:33;;;;;;;6.18;4.03;;;22.60;99.90;;;;;;5015180;28;20037;-65
2021/06/17 03:15:02;;;;;;;6.95;3.95;;;22.50;99.90;;;;;;5015011;28;20056;-65
2021/06/17 03:17:30;;;;;;;7.80;4.38;;;22.60;99.90;;;;;;5014843;28;20069;-65
2021/06/17 03:19:57;;;;;;;5.43;4.13;;;22.60;99.90;;;;;;5014861;28;20359;-65
2021/06/17 03:22:25;;;;;;;4.57;3.80;;;22.60;99.90;;;;;;5014788;28;20050;-65
2021/06/17 03:24:54;;;;;;;6.50;4.00;;;22.60;99.90;;;;;;5014837;28;20079;-66
2021/06/17 03:27:20;;;;;;;6.03;3.97;;;22.70;99.90;;;;;;5014685;28;20588;-66
2021/06/17 03:29:49;;;;;;;6.28;4.15;;;22.70;99.90;;;;;;5015070;28;20100;-66
2021/06/17 03:32:16;;;;;;;8.30;4.40;;;22.50;99.90;;;;;;5015044;28;20030;-65
2021/06/17 03:34:43;;;;;;;6.22;4.00;;;22.50;99.90;;;;;;5013121;28;20458;-66
2021/06/17 03:37:11;;;;;;;7.43;4.10;;;22.40;99.90;;;;;;5014614;28;20032;-67
2021/06/17 03:39:38;;;;;;;5.15;3.83;;;22.50;99.90;;;;;;5000385;28;20386;-66
2021/06/17 03:42:06;;;;;;;5.78;3.80;;;22.40;99.90;;;;;;5004224;28;20038;-65
2021/06/17 03:44:33;;;;;;;5.57;3.63;;;22.40;99.90;;;;;;5014429;28;20026;-66
2021/06/17 03:47:00;;;;;;;6.63;3.47;;;22.50;99.90;;;;;;5014541;28;20032;-65
2021/06/17 03:49:27;;;;;;;5.38;4.05;;;22.40;99.90;;;;;;5012748;28;20138;-65
2021/06/17 03:51:54;;;;;;;7.68;3.83;;;22.50;99.90;;;;;;5009861;28;20077;-66
2021/06/17 03:54:24;;;;;;;5.78;3.45;;;22.40;99.90;;;;;;4994529;28;20065;-66
2021/06/17 03:56:55;;;;;;;5.63;4.28;;;22.50;99.90;;;;;;4994647;28;20540;-64
2021/06/17 03:59:26;;;;;;;4.63;3.60;;;22.60;99.90;;;;;;4994559;28;20034;-65
2021/06/17 04:01:53;;;;;;;5.50;3.58;;;22.50;99.90;;;;;;4994708;28;20025;-66
2021/06/17 04:04:19;;;;;;;5.78;3.92;;;22.70;99.90;;;;;;4994285;28;20092;-65
2021/06/17 04:06:52;;;;;;;6.60;3.50;;;22.70;99.90;;;;;;4995037;28;20026;-66
2021/06/17 04:09:26;;;;;;;6.97;3.80;;;22.80;99.90;;;;;;5008519;28;20117;-64
2021/06/17 04:11:56;;;;;;;5.47;3.63;;;22.90;99.90;;;;;;4994868;28;20100;-64
2021/06/17 04:14:24;;;;;;;4.97;3.65;;;22.90;99.90;;;;;;4994289;28;20081;-63
2021/06/17 04:16:52;;;;;;;8.25;3.70;;;23.10;99.90;;;;;;4993399;28;20038;-64
2021/06/17 04:19:27;;;;;;;9.25;3.40;;;23.20;99.90;;;;;;4994582;28;20037;-63
2021/06/17 04:21:58;;;;;;;4.55;3.22;;;23.50;99.90;;;;;;4994504;28;20018;-65
2021/06/17 04:24:25;;;;;;;4.95;3.45;;;23.80;99.90;;;;;;4993922;28;20034;-65
2021/06/17 04:26:53;;;;;;;10.68;3.65;;;23.90;99.90;;;;;;4994013;28;20113;-70
2021/06/17 04:29:20;;;;;;;11.68;3.50;;;24.00;99.90;;;;;;4994119;28;20034;-68
2021/06/17 04:31:49;;;;;;;6.88;2.92;;;24.00;99.90;;;;;;4994235;28;20034;-69
2021/06/17 04:34:15;;;;;;;11.20;3.65;;;24.10;99.90;;;;;;4994196;28;20080;-69
2021/06/17 04:36:41;;;;;;;8.05;3.10;;;24.10;99.90;;;;;;4993727;28;20080;-69
2021/06/17 04:39:07;;;;;;;7.32;3.10;;;24.20;99.90;;;;;;5006282;28;20477;-69
2021/06/17 04:41:35;;;;;;;6.63;2.92;;;24.20;99.90;;;;;;5013395;28;20026;-69
2021/06/17 04:44:02;;;;;;;5.57;3.10;;;24.20;99.90;;;;;;5013415;28;20106;-68
2021/06/17 04:46:29;;;;;;;5.35;3.08;;;24.30;99.90;;;;;;5013033;28;20057;-69
2021/06/17 04:48:56;;;;;;;6.55;3.10;;;24.30;99.90;;;;;;5013101;28;20043;-69
2021/06/17 04:51:25;;;;;;;4.35;2.90;;;24.40;99.90;;;;;;5012659;28;20037;-70
2021/06/17 04:53:52;;;;;;;9.00;2.60;;;24.40;99.90;;;;;;4993634;28;20018;-70
2021/06/17 04:56:19;;;;;;;5.60;2.47;;;24.40;99.90;;;;;;4993843;28;20398;-70
2021/06/17 04:58:50;;;;;;;3.45;2.42;;;24.40;99.90;;;;;;4993872;28;20390;-71
2021/06/17 05:01:19;;;;;;;7.93;2.83;;;24.40;99.90;;;;;;5003950;28;20061;-69
2021/06/17 05:03:46;;;;;;;3.38;2.50;;;24.50;99.90;;;;;;5013327;28;20528;-71
2021/06/17 05:06:13;;;;;;;3.60;2.40;;;24.50;99.90;;;;;;5013147;28;20022;-74
2021/06/17 05:11:25;;;;;;;4.57;2.55;;;24.60;99.90;;;;;;5012054;28;20096;-73
2021/06/17 05:13:51;;;;;;;8.73;2.70;;;24.60;99.90;;;;;;5012233;28;20076;-73
2021/06/17 05:16:17;;;;;;;4.43;2.67;;;24.60;99.90;;;;;;5012938;28;20025;-76
2021/06/17 05:18:42;;;;;;;7.57;2.70;;;24.60;99.90;;;;;;5012680;28;20378;-70
2021/06/17 05:21:08;;;;;;;5.57;2.88;;;24.70;99.90;;;;;;5012675;28;20061;-71
2021/06/17 05:23:37;;;;;;;3.35;2.22;;;24.70;99.90;;;;;;5012301;28;20120;-69
2021/06/17 05:26:03;;;;;;;6.45;2.80;;;24.70;99.90;;;;;;5012083;28;20030;-65
2021/06/17 05:28:30;;;;;;;4.32;2.47;;;24.70;99.90;;;;;;5012165;28;20022;-68
2021/06/17 05:30:58;;;;;;;4.30;2.70;;;24.80;99.90;;;;;;5004180;28;20039;-69
2021/06/17 05:33:24;;;;;;;6.55;2.88;;;24.80;99.90;;;;;;5011670;28;20040;-69
2021/06/17 05:35:50;;;;;;;8.25;3.05;;;24.80;99.90;;;;;;5011100;28;20044;-67
2021/06/17 05:38:17;;;;;;;5.57;3.00;;;24.80;99.90;;;;;;5012421;28;20041;-68
2021/06/17 05:40:43;;;;;;;6.63;2.42;;;24.80;99.90;;;;;;5011778;28;20423;-66
2021/06/17 05:43:09;;;;;;;5.13;3.17;;;24.80;99.90;;;;;;5011905;28;20037;-66
2021/06/17 05:45:35;;;;;;;7.15;3.25;;;24.80;99.90;;;;;;5007653;28;20383;-68
2021/06/17 05:48:00;;;;;;;5.10;2.90;;;24.90;99.90;;;;;;5006387;28;20393;-67
2021/06/17 05:50:26;;;;;;;6.10;3.50;;;24.90;99.90;;;;;;5009493;28;20458;-67
2021/06/17 05:52:52;;;;;;;8.35;3.50;;;24.90;99.90;;;;;;5001094;28;20029;-67
2021/06/17 05:55:17;;;;;;;7.57;3.35;;;24.90;99.90;;;;;;5012504;28;20441;-67
2021/06/17 05:57:43;;;;;;;7.63;3.60;;;24.90;99.90;;;;;;5011395;28;20394;-66
2021/06/17 06:00:09;;;;;;;6.95;3.20;;;24.90;99.90;;;;;;5009860;28;20053;-66
2021/06/17 06:02:36;;;;;;;6.72;3.65;;;24.90;99.90;;;;;;5010447;28;20030;-68
2021/06/17 06:05:02;;;;;;;6.88;3.47;;;24.90;99.90;;;;;;5007208;28;20028;-67
2021/06/17 06:07:28;;;;;;;8.10;3.63;;;24.90;99.90;;;;;;5010734;28;20080;-68
2021/06/17 06:09:53;;;;;;;6.68;3.28;;;24.90;99.90;;;;;;5011069;28;20045;-67
2021/06/17 06:12:19;;;;;;;11.65;5.35;;;24.90;99.90;;;;;;5010872;28;20053;-68
2021/06/17 06:14:44;;;;;;;12.20;5.28;;;23.40;99.90;;;;;;5011335;28;20040;-65
2021/06/17 06:17:10;;;;;;;12.85;6.30;;;21.60;99.90;;;;;;5011076;28;20046;-66
2021/06/17 06:19:36;;;;;;;9.60;5.53;;;21.10;99.90;;;;;;5010209;28;20090;-66
2021/06/17 06:22:07;;;;;;;11.32;6.38;;;20.90;99.90;;;;;;5011444;28;20034;-65
2021/06/17 06:24:34;;;;;;;15.07;6.50;;;21.00;99.90;;;;;;5004211;28;20389;-64
2021/06/17 06:27:01;;;;;;;10.40;6.03;;;20.60;99.90;;;;;;5011643;28;20101;-62
2021/06/17 06:29:28;;;;;;;12.18;6.65;;;20.60;99.90;;;;;;5011447;28;20037;-66
2021/06/17 06:31:54;;;;;;;10.85;6.65;;;20.80;99.90;;;;;;5010480;28;20030;-63
2021/06/17 06:34:20;;;;;;;12.40;7.15;;;20.70;99.90;;;;;;4994745;28;20017;-63
2021/06/17 06:36:45;;;;;;;13.30;6.72;;;20.50;99.90;;;;;;5011391;28;20036;-63
2021/06/17 06:39:11;;;;;;;15.80;6.93;;;20.50;99.90;;;;;;5012801;28;20029;-63
2021/06/17 06:41:39;;;;;;;15.30;6.95;;;20.90;99.90;;;;;;5012809;28;20030;-64
2021/06/17 06:44:05;;;;;;;9.45;6.20;;;21.30;99.90;;;;;;5006493;28;20037;-64
2021/06/17 06:46:30;;;;;;;12.15;5.72;;;21.30;99.90;;;;;;5013796;28;20045;-64
2021/06/17 06:48:56;;;;;;;9.85;6.20;;;21.70;99.90;;;;;;5014676;28;20076;-65
2021/06/17 06:51:21;;;;;;;12.20;7.03;;;21.80;99.90;;;;;;5015316;28;20034;-64
2021/06/17 06:53:47;;;;;;;16.40;7.20;;;21.90;99.90;;;;;;5015725;28;20429;-64
2021/06/17 06:56:13;;;;;;;13.40;6.88;;;21.70;99.90;;;;;;5015447;28;20033;-65
2021/06/17 06:58:38;;;;;;;9.60;6.55;;;21.80;99.90;;;;;;5015203;28;20423;-65
2021/06/17 07:01:04;;;;;;;12.20;6.53;;;21.60;99.90;;;;;;5006352;28;20092;-65
2021/06/17 07:03:29;;;;;;;11.73;6.38;;;21.40;99.90;;;;;;4995473;28;20026;-64
2021/06/17 07:05:55;;;;;;;12.68;6.18;;;21.80;99.90;;;;;;4995630;28;20064;-64
2021/06/17 07:08:21;;;;;;;14.10;6.50;;;22.00;99.90;;;;;;4995201;28;20023;-65
2021/06/17 07:10:48;;;;;;;15.75;6.63;;;22.10;99.90;;;;;;5008848;28;20401;-65
2021/06/17 07:13:14;;;;;;;10.80;6.28;;;22.10;99.90;;;;;;5015450;28;20056;-66
2021/06/17 07:15:41;;;;;;;12.80;6.20;;;22.30;99.90;;;;;;5003724;28;20490;-65
2021/06/17 07:18:07;;;;;;;10.85;5.35;;;22.20;99.90;;;;;;5015045;28;20022;-66
2021/06/17 07:20:33;;;;;;;8.98;5.32;;;22.70;99.90;;;;;;5010330;28;20029;-66
2021/06/17 07:22:59;;;;;;;9.27;5.05;;;23.10;99.90;;;;;;5014918;28;20109;-71
2021/06/17 07:25:26;;;;;;;10.77;5.00;;;23.40;99.90;;;;;;5013977;28;20049;-70
2021/06/17 07:27:52;;;;;;;13.82;5.43;;;23.70;99.90;;;;;;5013289;28;20041;-71
2021/06/17 07:30:19;;;;;;;13.93;5.00;;;24.00;99.90;;;;;;5009816;28;20045;-70
2021/06/17 07:32:45;;;;;;;9.95;4.90;;;24.10;99.90;;;;;;5008909;28;20104;-71
2021/06/17 07:35:13;;;;;;;10.77;5.30;;;24.20;99.90;;;;;;4996308;28;20034;-70
2021/06/17 07:37:39;;;;;;;11.05;4.80;;;24.40;99.90;;;;;;4993616;28;20030;-72
2021/06/17 07:40:07;;;;;;;10.85;4.72;;;24.40;99.90;;;;;;4995205;28;20026;-66
2021/06/17 07:42:33;;;;;;;7.13;4.40;;;24.60;99.90;;;;;;4994786;28;20581;-68
2021/06/17 07:44:59;;;;;;;8.27;4.65;;;24.60;99.90;;;;;;4995080;28;20030;-68
2021/06/17 07:47:24;;;;;;;10.25;4.68;;;24.60;99.90;;;;;;4994730;28;20487;-67
2021/06/17 07:49:50;;;;;;;10.52;4.85;;;24.70;99.90;;;;;;5006052;28;20049;-68
2021/06/17 07:52:16;;;;;;;8.27;4.68;;;24.70;99.90;;;;;;5014696;28;20022;-68
2021/06/17 07:54:41;;;;;;;8.63;4.70;;;24.80;99.90;;;;;;5014299;28;20065;-68
2021/06/17 07:57:07;;;;;;;9.80;4.50;;;24.80;99.90;;;;;;5013095;28;20452;-67
2021/06/17 07:59:33;;;;;;;8.88;4.25;;;24.90;99.90;;;;;;5013932;28;20021;-67
2021/06/17 08:01:58;;;;;;;8.80;4.32;;;24.90;99.90;;;;;;5012763;28;20504;-66
2021/06/17 08:04:27;;;;;;;6.72;4.35;;;24.90;99.90;;;;;;5013602;28;20034;-68
2021/06/17 08:06:53;;;;;;;9.88;4.57;;;24.90;99.90;;;;;;5013697;28;20410;-73
2021/06/17 08:09:19;;;;;;;7.38;4.47;;;25.00;99.90;;;;;;5013500;28;20036;-69
2021/06/17 08:11:49;;;;;;;7.32;4.22;;;25.10;99.90;;;;;;5014397;28;20034;-71
2021/06/17 08:14:18;;;;;;;10.75;5.00;;;25.10;99.90;;;;;;5014311;28;20033;-70
2021/06/17 08:16:44;;;;;;;7.60;4.32;;;25.20;99.90;;;;;;5014287;28;20018;-72
2021/06/17 08:19:10;;;;;;;7.88;4.47;;;25.30;99.90;;;;;;5013827;28;20036;-70
2021/06/17 08:21:35;;;;;;;11.15;4.43;;;25.30;99.90;;;;;;5013862;28;20044;-68
2021/06/17 08:24:01;;;;;;;8.07;4.03;;;25.40;99.90;;;;;;5013524;28;20037;-70
2021/06/17 08:26:27;;;;;;;7.95;4.57;;;25.50;99.90;;;;;;5013622;28;20490;-71
2021/06/17 08:28:53;;;;;;;9.35;4.45;;;25.50;99.90;;;;;;5013711;28;20465;-73
2021/06/17 08:31:18;;;;;;;8.02;4.10;;;25.50;99.90;;;;;;5013286;28;20096;-73
2021/06/17 08:33:44;;;;;;;8.18;4.25;;;25.60;99.90;;;;;;5013819;28;20029;-72
2021/06/17 08:36:10;;;;;;;10.23;4.43;;;25.60;99.90;;;;;;5013629;28;20053;-73
2021/06/17 08:38:37;;;;;;;7.22;4.53;;;25.70;99.90;;;;;;5013227;28;20030;-76
2021/06/17 08:41:05;;;;;;;10.55;4.50;;;25.70;99.90;;;;;;5013605;28;20045;-73
2021/06/17 08:43:31;;;;;;;6.57;4.22;;;25.70;99.90;;;;;;5013262;28;20032;-72
2021/06/17 08:45:57;;;;;;;9.88;4.32;;;25.70;99.90;;;;;;5013431;28;20021;-68
2021/06/17 08:48:23;;;;;;;8.70;4.18;;;25.80;99.90;;;;;;5013327;28;20042;-68
2021/06/17 08:50:49;;;;;;;7.32;3.83;;;25.80;99.90;;;;;;5013423;28;20386;-70
2021/06/17 08:53:15;;;;;;;7.10;3.92;;;25.80;99.90;;;;;;5013523;28;20041;-67
2021/06/17 08:55:40;;;;;;;12.40;4.60;;;25.90;99.90;;;;;;5012976;28;20030;-69
2021/06/17 08:58:06;;;;;;;10.55;4.32;;;25.90;99.90;;;;;;5013163;28;20496;-72
2021/06/17 09:00:41;;;;;;;11.27;4.13;;;25.80;99.90;;;;;;5012118;28;20033;-69
2021/06/17 09:03:12;;;;;;;8.40;4.10;;;25.80;99.90;;;;;;5012175;28;20113;-67
2021/06/17 09:05:41;;;;;;;7.68;3.92;;;25.90;99.90;;;;;;5013056;28;20359;-69
2021/06/17 09:08:08;;;;;;;8.25;4.07;;;25.90;99.90;;;;;;5013015;28;20466;-70
2021/06/17 09:10:39;;;;;;;9.13;3.88;;;25.90;99.90;;;;;;5012896;28;20049;-69
2021/06/17 09:13:05;;;;;;;10.85;4.20;;;26.00;99.90;;;;;;5012926;28;20091;-69
2021/06/17 09:15:52;;;;;;;9.32;3.95;;;26.00;99.90;;;;;;5012647;28;20482;-69
2021/06/17 09:18:19;;;;;;;7.95;3.83;;;26.00;99.90;;;;;;5013410;28;20048;-70
2021/06/17 09:20:48;;;;;;;7.32;3.70;;;26.10;99.90;;;;;;5013118;28;20018;-70
2021/06/17 09:23:20;;;;;;;9.90;3.33;;;26.10;99.90;;;;;;5012809;28;20036;-70
2021/06/17 09:25:51;;;;;;;18.27;4.30;;;26.10;99.90;;;;;;5012898;28;20359;-72
2021/06/17 09:28:17;;;;;;;16.30;4.78;;;26.10;99.90;;;;;;5012993;28;20363;-77
2021/06/17 09:30:43;;;;;;;21.67;4.95;;;26.00;99.90;;;;;;5010025;28;20037;-71
2021/06/17 09:33:12;;;;;;;17.15;4.57;;;26.00;99.90;;;;;;5006974;28;20037;-75
2021/06/17 09:35:58;;;;;;;15.23;4.20;;;26.10;99.90;;;;;;4992843;28;20029;-74
2021/06/17 09:38:25;;;;;;;18.02;3.83;;;26.10;99.90;;;;;;4992713;28;20030;-75
2021/06/17 09:40:52;;;;;;;12.85;4.13;;;26.20;99.90;;;;;;4993094;28;20042;-73
2021/06/17 09:43:28;;;;;;;10.77;3.92;;;26.30;99.90;;;;;;4993027;28;20509;-70
2021/06/17 09:45:57;;;;;;;10.80;3.97;;;26.40;99.90;;;;;;4992913;28;20105;-70
2021/06/17 09:48:44;;;;;;;9.52;3.85;;;26.40;99.90;;;;;;4992590;28;20378;-76
2021/06/17 09:51:41;;;;;;;11.68;3.65;;;26.40;99.90;;;;;;4992790;28;20039;-73
2021/06/17 09:54:15;;;;;;;11.00;3.83;;;26.40;99.90;;;;;;4992743;28;20050;-74
2021/06/17 09:56:41;;;;;;;;;;;26.30;99.90;;;;;;4992718;28;20504;-73
2021/06/17 09:59:10;;;;;;;9.73;3.53;;;26.20;99.90;;;;;;4992527;28;19913;-73
2021/06/17 10:01:42;;;;;;;15.65;4.28;;;26.30;99.90;;;;;;5011172;28;20042;-76
2021/06/17 10:04:13;;;;;;;48.08;5.30;;;26.30;99.90;;;;;;5012148;28;20022;-74
2021/06/17 10:06:41;;;;;;;32.92;5.28;;;26.40;99.90;;;;;;5011746;28;20056;-72
2021/06/17 10:09:13;;;;;;;31.70;5.45;;;26.40;99.90;;;;;;4992384;28;20023;-77
2021/06/17 10:11:41;;;;;;;98.32;8.35;;;26.50;99.90;;;;;;4992077;28;20077;-71
2021/06/17 10:14:08;;;;;;;43.70;5.50;;;26.50;99.90;;;;;;5001446;28;20034;-70
2021/06/17 10:16:38;;;;;;;41.05;5.60;;;26.50;99.90;;;;;;5011756;28;20018;-74
2021/06/17 10:19:04;;;;;;;35.95;5.53;;;26.50;99.90;;;;;;5011882;28;20474;-77
2021/06/17 10:21:33;;;;;;;33.33;4.80;;;26.60;99.90;;;;;;5011580;28;20026;-76
2021/06/17 10:24:01;;;;;;;19.05;4.07;;;26.50;99.90;;;;;;5011934;28;20029;-75
2021/06/17 10:26:30;;;;;;;25.83;5.15;;;26.50;99.90;;;;;;5011580;28;20053;-75
2021/06/17 10:28:57;;;;;;;28.08;5.20;;;26.50;99.90;;;;;;5011923;28;20056;-76
2021/06/17 10:31:39;;;;;;;19.58;4.78;;;26.60;99.90;;;;;;5009984;28;20076;-75
2021/06/17 10:34:26;;;;;;;18.67;4.88;;;26.50;99.90;;;;;;5011602;28;20040;-77
2021/06/17 10:37:21;;;;;;;10.93;3.70;;;26.50;99.90;;;;;;5011474;28;20033;-76
2021/06/17 10:40:05;;;;;;;15.48;4.25;;;26.50;99.90;;;;;;5011948;28;20068;-78
2021/06/17 10:42:33;;;;;;;20.55;4.47;;;26.50;99.90;;;;;;5011442;28;20068;-77
2021/06/17 10:45:08;;;;;;;13.55;3.97;;;26.50;99.90;;;;;;5011614;28;20121;-77
2021/06/17 10:47:57;;;;;;;13.95;3.97;;;26.50;99.90;;;;;;5011389;28;20026;-75
2021/06/17 10:50:47;;;;;;;8.43;3.38;;;26.50;99.90;;;;;;5011232;28;20125;-76
2021/06/17 10:53:23;;;;;;;12.15;3.53;;;26.50;99.90;;;;;;5011669;28;20045;-77
2021/06/17 10:56:01;;;;;;;12.95;3.75;;;26.50;99.90;;;;;;5011686;28;20419;-78
2021/06/17 10:58:45;;;;;;;9.07;3.70;;;26.50;99.90;;;;;;5011477;28;20026;-76
2021/06/17 11:01:37;;;;;;;8.95;2.80;;;26.50;99.90;;;;;;4993255;28;20034;-77
2021/06/17 11:04:09;;;;;;;8.88;3.22;;;26.50;99.90;;;;;;4992026;28;20034;-77
2021/06/17 11:06:50;;;;;;;7.43;2.88;;;26.60;99.90;;;;;;4993386;28;20029;-77
2021/06/17 11:09:34;;;;;;;10.07;3.53;;;26.60;99.90;;;;;;5011510;28;20037;-76
2021/06/17 11:12:12;;;;;;;8.27;2.97;;;26.60;99.90;;;;;;5011304;28;20509;-76
2021/06/17 11:14:42;;;;;;;6.22;3.08;;;26.60;99.90;;;;;;5011277;28;20026;-77
2021/06/17 11:17:26;;;;;;;7.47;2.80;;;26.60;99.90;;;;;;5011249;28;20041;-74
2021/06/17 11:20:23;;;;;;;8.75;2.92;;;26.60;99.90;;;;;;5011245;28;20088;-76
2021/06/17 11:22:59;;;;;;;9.35;3.10;;;26.60;99.90;;;;;;5011752;28;20101;-77
2021/06/17 11:25:27;;;;;;;6.78;2.92;;;26.60;99.90;;;;;;5012498;28;20026;-76
2021/06/17 11:28:01;;;;;;;6.57;3.25;;;26.60;99.90;;;;;;5014616;28;20401;-76
2021/06/17 11:30:39;;;;;;;7.05;2.63;;;26.60;99.90;;;;;;5013644;28;20042;-75
2021/06/17 11:33:19;;;;;;;7.13;3.03;;;26.60;99.90;;;;;;5014448;28;20386;-77
2021/06/17 11:35:47;;;;;;;7.15;3.00;;;26.60;99.90;;;;;;5015226;28;20033;-75
2021/06/17 11:38:21;;;;;;;6.78;2.80;;;26.60;99.90;;;;;;5014822;28;20029;-75
2021/06/17 11:40:47;;;;;;;5.78;2.80;;;26.60;99.90;;;;;;5015028;28;20057;-77
2021/06/17 11:43:13;;;;;;;5.93;2.60;;;26.80;99.90;;;;;;5014895;28;20053;-77
2021/06/17 11:45:39;;;;;;;6.18;2.92;;;26.80;99.90;;;;;;5015030;28;20546;-79
2021/06/17 11:48:08;;;;;;;6.88;2.83;;;26.80;99.90;;;;;;5014823;28;20430;-74
2021/06/17 11:50:49;;;;;;;8.55;2.90;;;26.80;99.90;;;;;;5014308;28;20038;-74
2021/06/17 11:53:21;;;;;;;8.13;2.78;;;26.80;99.90;;;;;;5014916;28;20026;-73
2021/06/17 11:55:57;;;;;;;7.97;3.20;;;26.90;99.90;;;;;;5014629;28;20033;-72
2021/06/17 11:58:26;;;;;;;6.10;2.65;;;27.00;99.90;;;;;;5014244;28;20029;-72
2021/06/17 12:00:52;;;;;;;5.10;2.53;;;27.10;99.90;;;;;;4996794;28;20030;-73
2021/06/17 12:03:24;;;;;;;3.25;2.40;;;27.00;99.90;;;;;;4995283;28;20494;-73
2021/06/17 12:05:51;;;;;;;4.72;2.78;;;27.00;99.90;;;;;;5006800;28;20030;-72
2021/06/17 12:08:17;;;;;;;3.95;2.30;;;27.00;99.90;;;;;;5014450;28;20371;-73
2021/06/17 12:10:45;;;;;;;3.72;2.60;;;27.00;99.90;;;;;;5013794;28;20041;-71
2021/06/17 12:13:12;;;;;;;5.47;2.60;;;27.10;99.90;;;;;;5013813;28;20022;-72
2021/06/17 12:15:41;;;;;;;5.38;2.35;;;27.10;99.90;;;;;;5013994;28;20041;-70
2021/06/17 12:18:09;;;;;;;4.75;2.70;;;27.10;99.90;;;;;;5014071;28;20443;-74
2021/06/17 12:20:37;;;;;;;5.70;2.70;;;27.20;99.90;;;;;;5013626;28;20026;-74
2021/06/17 12:23:07;;;;;;;5.53;2.58;;;27.20;99.90;;;;;;5013730;28;20036;-75
2021/06/17 12:25:42;;;;;;;3.83;2.38;;;27.10;99.90;;;;;;5013383;28;20022;-76
2021/06/17 12:28:10;;;;;;;4.32;2.53;;;27.20;99.90;;;;;;5013966;28;20026;-78
2021/06/17 12:30:44;;;;;;;4.30;2.75;;;27.20;99.90;;;;;;5009061;28;20498;-76
2021/06/17 12:33:14;;;;;;;4.05;2.58;;;27.30;99.90;;;;;;5003774;28;20124;-71
2021/06/17 12:35:44;;;;;;;6.10;2.47;;;27.30;99.90;;;;;;4996984;28;20042;-75
2021/06/17 12:38:10;;;;;;;6.15;2.58;;;27.30;99.90;;;;;;4993296;28;20033;-75
2021/06/17 12:40:44;;;;;;;3.83;2.40;;;27.30;99.90;;;;;;4993601;28;20054;-74
2021/06/17 12:43:12;;;;;;;4.72;2.63;;;27.30;99.90;;;;;;4994069;28;20510;-73
2021/06/17 12:45:43;;;;;;;4.43;2.40;;;27.30;99.90;;;;;;4993617;28;20034;-74
2021/06/17 12:48:18;;;;;;;4.60;2.58;;;27.30;99.90;;;;;;4994131;28;20539;-74
2021/06/17 12:53:46;;;;;;;6.20;2.50;;;27.40;99.90;;;;;;4993397;28;20037;-75
2021/06/17 12:56:11;;;;;;;4.40;2.33;;;27.50;99.90;;;;;;4993617;28;20498;-75
2021/06/17 12:58:53;;;;;;;5.47;2.40;;;27.50;99.90;;;;;;4994026;28;20027;-75
2021/06/17 13:01:24;;;;;;;4.40;2.45;;;27.50;99.90;;;;;;5012833;28;20030;-73
2021/06/17 13:03:51;;;;;;;4.55;2.55;;;27.50;99.90;;;;;;5013278;28;20034;-73